You are not logged in, Click here to log in
成田国際空港NRT / RJAA 日本千葉縣成田市
ICAO: RJAA Country: 日本千葉縣成田市
Latitude: 35.772 Longitude: 140.393
Total Arrivals: 160 Total Departures: 151
Latest Arrival: BR2180 (RCTP-RJAA)Mori. Yang Latest Departure: NH8 (RJAA-KSFO)Mori. Yang
Scenery:
METAR : RJAA 221100Z 18012KT 150V210 9999 FEW025 BKN070 14/12 Q1010 TEMPO 20016G28KT RMK 1CU025 6AC070 A2984 P/FR

成田国際空港NRT